Amity, PA

12:21 PM EDT on May 22, 2017 (GMT -0400)
Washington County | | Change Station

Elev 1181 ft 40.14 °N, 80.29 °W | Updated 6 minutes ago

Mostly Cloudy
Mostly Cloudy
63 °F
Feels Like 63 °F
N
12
Wind Variable Wind from West
Gusts 21 mph

Today
High -- | Low -- °F
--% Chance of Precip.
Yesterday
High -- | Low -- °F
Precip. -- in
Pressure 30.08 in
Visibility 10.0 miles
Clouds Mostly Cloudy 2400 ft
Mostly Cloudy 2800 ft
Dew Point 54 °F
Humidity 72%
Rainfall 0.10 in
Snow Depth Not available.
5:59 AM 8:35 PM
Waning Crescent, 14% visible
METAR KAFJ 221615Z AUTO 26010G18KT 220V290 10SM BKN024 BKN028 17/12 A3008 RMK AO1
Pressure 30.08 in
Visibility 10.0 miles
Clouds Mostly Cloudy 2400 ft
Mostly Cloudy 2800 ft
Dew Point 54 °F
Humidity 72%
Rainfall 0.10 in
Snow Depth Not available.
5:59 AM 8:35 PM
Waning Crescent, 14% visible
METAR KAFJ 221615Z AUTO 26010G18KT 220V290 10SM BKN024 BKN028 17/12 A3008 RMK AO1

Get Severe Weather Alerts

Thanks for signing up!

Be on the lookout for a verification email in your inbox.

You'll start receiving the daily forecast at 8 AM.

×

10-Day Weather Forecast

Almanac

Astronomy

May. 22, 2017 Rise Set
Actual Time
Civil Twilight
Nautical Twilight
Astronomical Twilight
Moon
Length of Visible Light
Length of Day
Tomorrow will be .
, % of the Moon is Illuminated

Today's Extremes

State Highs State Lows

Community

WunderPhotos

Category 6

Welcome to Category 6. This is the collective home for Weather Underground's featured writeups by Dr. Jeff Masters (right), Bob Henson (left), Chris Burt, and other regular contributors.

Nearby

Air Quality

  Air Quality AQ Index Pollutant
Not available.

Snow Depth

Station Depth Elevation

Earthquake Activity

City Distance Mag. Time & Date
Minimum magnitude displayed is 2.5.

Coastal Water Temperatures

Place Temperature

Stations

Nearby Weather Stations

Station Location Temp. Windchill Dew Point Humidity Wind Precip. Elev Updated Type
                   

Watches & Warnings

There are currently no watches in effect.